createdAt,value
2018-12-05T00:01:37.926Z,4.20
2018-12-05T00:04:04.842Z,4.20
2018-12-05T00:06:31.791Z,4.20
2018-12-05T00:08:58.749Z,4.20
2018-12-05T00:11:25.754Z,4.20
2018-12-05T00:13:52.699Z,4.30
2018-12-05T00:16:19.658Z,4.30
2018-12-05T00:18:46.566Z,4.20
2018-12-05T00:21:13.517Z,4.20
2018-12-05T00:23:40.475Z,4.10
2018-12-05T00:26:07.391Z,4.20
2018-12-05T00:28:34.340Z,4.20
2018-12-05T00:31:01.285Z,4.20
2018-12-05T00:33:28.197Z,4.20
2018-12-05T00:36:36.032Z,4.20
2018-12-05T00:39:05.685Z,4.10
2018-12-05T00:41:32.439Z,4.10
2018-12-05T00:43:59.234Z,4.10
2018-12-05T00:46:25.956Z,4.00
2018-12-05T00:48:52.600Z,4.10
2018-12-05T00:51:19.297Z,4.10
2018-12-05T00:53:45.990Z,4.00
2018-12-05T00:56:12.632Z,4.00
2018-12-05T00:58:39.360Z,4.00
2018-12-05T01:01:06.052Z,4.00
2018-12-05T01:03:32.741Z,3.90
2018-12-05T01:05:59.481Z,3.90
2018-12-05T01:08:26.181Z,3.90
2018-12-05T01:10:52.851Z,3.80
2018-12-05T01:13:19.520Z,3.80
2018-12-05T01:15:46.192Z,3.80
2018-12-05T01:18:12.824Z,3.80
2018-12-05T01:20:39.508Z,3.80
2018-12-05T01:23:06.332Z,3.80
2018-12-05T01:25:32.975Z,3.90
2018-12-05T01:27:59.653Z,3.90
2018-12-05T01:30:26.331Z,3.90
2018-12-05T01:33:00.062Z,3.80
2018-12-05T01:35:26.738Z,3.70
2018-12-05T01:37:53.381Z,3.70
2018-12-05T01:40:20.060Z,3.70
2018-12-05T01:42:46.740Z,3.70
2018-12-05T01:45:13.397Z,3.80
2018-12-05T01:47:40.137Z,3.80
2018-12-05T01:50:06.979Z,3.70
2018-12-05T01:52:33.632Z,3.70
2018-12-05T01:55:00.340Z,3.60
2018-12-05T01:57:27.059Z,3.60
2018-12-05T01:59:53.713Z,3.50
2018-12-05T02:02:20.656Z,3.50
2018-12-05T02:04:47.333Z,3.50
2018-12-05T02:07:13.971Z,3.50
2018-12-05T02:09:42.721Z,3.60
2018-12-05T02:12:09.413Z,3.60
2018-12-05T02:14:36.361Z,3.60
2018-12-05T02:17:03.047Z,3.60
2018-12-05T02:19:29.725Z,3.60
2018-12-05T02:21:56.368Z,3.60
2018-12-05T02:24:23.058Z,3.60
2018-12-05T02:26:49.729Z,3.60
2018-12-05T02:29:16.374Z,3.50
2018-12-05T02:31:43.052Z,3.50
2018-12-05T02:34:09.892Z,3.50
2018-12-05T02:36:36.545Z,3.50
2018-12-05T02:39:06.301Z,3.50
2018-12-05T02:41:32.985Z,3.40
2018-12-05T02:43:59.638Z,3.40
2018-12-05T02:46:26.412Z,3.30
2018-12-05T02:48:53.287Z,3.30
2018-12-05T02:51:19.957Z,3.40
2018-12-05T02:53:46.636Z,3.40
2018-12-05T02:56:13.318Z,3.40
2018-12-05T02:58:39.963Z,3.40
2018-12-05T03:01:06.790Z,3.40
2018-12-05T03:03:33.491Z,3.40
2018-12-05T03:06:00.140Z,3.40
2018-12-05T03:08:26.824Z,3.30
2018-12-05T03:10:53.512Z,3.30
2018-12-05T03:13:20.153Z,3.30
2018-12-05T03:15:47.426Z,3.30
2018-12-05T03:18:14.108Z,3.40
2018-12-05T03:20:40.752Z,3.40
2018-12-05T03:23:07.436Z,3.30
2018-12-05T03:25:34.116Z,3.40
2018-12-05T03:28:00.788Z,3.40
2018-12-05T03:30:27.465Z,3.40
2018-12-05T03:32:54.139Z,3.30
2018-12-05T03:35:22.972Z,3.30
2018-12-05T03:37:49.648Z,3.30
2018-12-05T03:40:16.345Z,3.30
2018-12-05T03:42:42.985Z,3.30
2018-12-05T03:45:09.682Z,3.30
2018-12-05T03:47:36.530Z,3.30
2018-12-05T03:50:03.511Z,3.20
2018-12-05T03:52:30.245Z,3.30
2018-12-05T03:54:56.897Z,3.30
2018-12-05T03:57:23.557Z,3.30
2018-12-05T03:59:50.228Z,3.30
2018-12-05T04:02:16.927Z,3.30
2018-12-05T04:04:43.575Z,3.40
2018-12-05T04:07:17.135Z,3.30
2018-12-05T04:09:45.123Z,3.30
2018-12-05T04:12:12.154Z,3.30
2018-12-05T04:14:38.824Z,3.40
2018-12-05T04:17:05.500Z,3.30
2018-12-05T04:19:32.132Z,3.30
2018-12-05T04:21:58.821Z,3.30
2018-12-05T04:24:25.522Z,3.20
2018-12-05T04:26:52.180Z,3.20
2018-12-05T04:29:18.860Z,3.20
2018-12-05T04:31:45.552Z,3.10
2018-12-05T04:34:12.240Z,3.10
2018-12-05T04:36:38.924Z,3.10
2018-12-05T04:39:07.593Z,3.10
2018-12-05T04:41:34.368Z,3.10
2018-12-05T04:44:02.059Z,3.10
2018-12-05T04:46:35.781Z,3.10
2018-12-05T04:49:02.560Z,3.10
2018-12-05T04:51:29.237Z,3.10
2018-12-05T04:53:56.390Z,3.10
2018-12-05T04:56:23.072Z,3.10
2018-12-05T04:58:50.033Z,3.20
2018-12-05T05:01:16.683Z,3.20
2018-12-05T05:03:43.376Z,3.20
2018-12-05T05:06:10.161Z,3.10
2018-12-05T05:08:43.868Z,3.10
2018-12-05T05:11:10.549Z,3.10
2018-12-05T05:13:37.199Z,3.10
2018-12-05T05:16:03.910Z,3.20
2018-12-05T05:18:30.596Z,3.20
2018-12-05T05:20:57.249Z,3.20
2018-12-05T05:23:23.945Z,3.30
2018-12-05T05:25:50.626Z,3.30
2018-12-05T05:28:17.265Z,3.30
2018-12-05T05:30:44.602Z,3.30
2018-12-05T05:33:11.285Z,3.20
2018-12-05T05:35:37.937Z,3.20
2018-12-05T05:38:04.632Z,3.20
2018-12-05T05:40:31.313Z,3.20
2018-12-05T05:42:59.357Z,3.20
2018-12-05T05:45:26.037Z,3.30
2018-12-05T05:47:52.752Z,3.20
2018-12-05T05:50:20.657Z,3.20
2018-12-05T05:52:47.522Z,3.20
2018-12-05T05:55:14.198Z,3.10
2018-12-05T05:57:40.833Z,3.20
2018-12-05T06:00:07.809Z,3.10
2018-12-05T06:02:34.484Z,3.10
2018-12-05T06:05:01.122Z,3.10
2018-12-05T06:07:27.809Z,3.20
2018-12-05T06:09:54.499Z,3.20
2018-12-05T06:12:21.138Z,3.20
2018-12-05T06:14:47.824Z,3.20
2018-12-05T06:17:14.636Z,3.20
2018-12-05T06:19:41.289Z,3.30
2018-12-05T06:22:07.967Z,3.30
2018-12-05T06:24:34.664Z,3.30
2018-12-05T06:27:01.329Z,3.30
2018-12-05T06:29:28.304Z,3.30
2018-12-05T06:31:54.985Z,3.40
2018-12-05T06:34:21.640Z,3.40
2018-12-05T06:36:48.353Z,3.30
2018-12-05T06:39:15.011Z,3.30
2018-12-05T06:41:41.753Z,3.30
2018-12-05T06:44:08.429Z,3.30
2018-12-05T06:46:35.104Z,3.40
2018-12-05T06:49:01.813Z,3.40
2018-12-05T06:51:28.488Z,3.30
2018-12-05T06:53:55.178Z,3.30
2018-12-05T06:56:21.820Z,3.40
2018-12-05T06:58:48.513Z,3.30
2018-12-05T07:01:15.165Z,3.30
2018-12-05T07:03:41.849Z,3.30
2018-12-05T07:06:08.508Z,3.30
2018-12-05T07:08:35.205Z,3.30
2018-12-05T07:11:01.844Z,3.30
2018-12-05T07:13:28.519Z,3.30
2018-12-05T07:15:55.482Z,3.20
2018-12-05T07:18:22.168Z,3.30
2018-12-05T07:20:48.824Z,3.30
2018-12-05T07:23:15.521Z,3.30
2018-12-05T07:25:42.344Z,3.30
2018-12-05T07:28:08.997Z,3.40
2018-12-05T07:30:35.748Z,3.40
2018-12-05T07:33:02.399Z,3.50
2018-12-05T07:35:29.085Z,3.50
2018-12-05T07:37:55.724Z,3.50
2018-12-05T07:40:22.413Z,3.50
2018-12-05T07:42:49.137Z,3.50
2018-12-05T07:45:15.829Z,3.50
2018-12-05T07:47:42.528Z,3.40
2018-12-05T07:50:09.277Z,3.40
2018-12-05T07:52:35.917Z,3.40
2018-12-05T07:55:02.868Z,3.40
2018-12-05T07:57:29.520Z,3.40
2018-12-05T07:59:56.214Z,3.50
2018-12-05T08:02:22.892Z,3.40
2018-12-05T08:04:49.552Z,3.40
2018-12-05T08:07:16.233Z,3.40
2018-12-05T08:09:42.904Z,3.40
2018-12-05T08:12:09.540Z,3.40
2018-12-05T08:14:36.210Z,3.40
2018-12-05T08:17:02.871Z,3.40
2018-12-05T08:19:29.540Z,3.50
2018-12-05T08:21:56.196Z,3.60
2018-12-05T08:24:22.848Z,3.60
2018-12-05T08:26:56.456Z,3.60
2018-12-05T08:29:23.110Z,3.60
2018-12-05T08:31:50.720Z,3.60
2018-12-05T08:34:17.358Z,3.60
2018-12-05T08:36:44.071Z,3.70
2018-12-05T08:39:10.753Z,3.70
2018-12-05T08:41:37.439Z,3.70
2018-12-05T08:44:04.241Z,3.80
2018-12-05T08:46:30.968Z,3.70
2018-12-05T08:48:57.617Z,3.70
2018-12-05T08:51:24.301Z,3.70
2018-12-05T08:53:50.949Z,3.70
2018-12-05T08:56:17.648Z,3.80
2018-12-05T08:58:44.289Z,3.80
2018-12-05T09:04:03.921Z,3.80
2018-12-05T09:06:30.612Z,3.80
2018-12-05T09:08:57.255Z,3.90
2018-12-05T09:11:23.948Z,4.00
2018-12-05T09:13:50.654Z,4.10
2018-12-05T09:16:17.347Z,4.20
2018-12-05T09:18:44.029Z,4.30
2018-12-05T09:21:10.684Z,4.30
2018-12-05T09:23:37.285Z,4.40
2018-12-05T09:26:03.940Z,4.40
2018-12-05T09:28:30.621Z,4.40
2018-12-05T09:30:57.285Z,4.40
2018-12-05T09:33:23.976Z,4.30
2018-12-05T09:35:50.621Z,4.40
2018-12-05T09:38:17.339Z,4.50
2018-12-05T09:40:43.988Z,4.50
2018-12-05T09:43:10.679Z,4.40
2018-12-05T09:45:37.311Z,4.40
2018-12-05T09:48:04.075Z,4.50
2018-12-05T09:50:30.801Z,4.60
2018-12-05T09:52:57.468Z,4.60
2018-12-05T09:55:24.146Z,4.70
2018-12-05T09:57:51.301Z,4.70
2018-12-05T10:00:17.993Z,4.60
2018-12-05T10:02:44.644Z,4.70
2018-12-05T10:05:11.472Z,4.70
2018-12-05T10:07:38.111Z,4.80
2018-12-05T10:10:05.577Z,4.80
2018-12-05T10:12:32.225Z,4.70
2018-12-05T10:14:59.032Z,4.70
2018-12-05T10:17:25.681Z,4.60
2018-12-05T10:19:52.397Z,4.60
2018-12-05T10:22:19.103Z,4.60
2018-12-05T10:24:45.933Z,4.60
2018-12-05T10:27:12.627Z,4.50
2018-12-05T10:29:39.445Z,4.60
2018-12-05T10:32:06.235Z,4.60
2018-12-05T10:34:32.885Z,4.80
2018-12-05T10:36:59.620Z,4.80
2018-12-05T10:39:26.369Z,4.80
2018-12-05T10:41:53.251Z,4.80
2018-12-05T10:44:19.949Z,4.80
2018-12-05T10:46:46.911Z,4.80
2018-12-05T10:49:13.619Z,4.80
2018-12-05T10:51:40.331Z,4.80
2018-12-05T10:54:07.137Z,4.80
2018-12-05T10:56:33.856Z,4.80
2018-12-05T10:59:00.550Z,4.80
2018-12-05T11:01:33.175Z,4.90
2018-12-05T11:04:02.157Z,5.00
2018-12-05T11:06:34.785Z,5.10
2018-12-05T11:09:07.630Z,5.00
2018-12-05T11:11:40.364Z,4.80
2018-12-05T11:14:13.156Z,4.80
2018-12-05T11:16:45.990Z,5.00
2018-12-05T11:19:18.850Z,5.10
2018-12-05T11:21:51.787Z,5.30
2018-12-05T11:24:24.482Z,5.40
2018-12-05T11:26:51.249Z,5.40
2018-12-05T11:29:18.008Z,5.40
2018-12-05T11:31:44.703Z,5.30
2018-12-05T11:34:11.361Z,5.30
2018-12-05T11:36:38.254Z,5.10
2018-12-05T11:39:06.552Z,5.20
2018-12-05T11:41:33.446Z,5.20
2018-12-05T11:44:07.039Z,5.20
2018-12-05T11:46:33.847Z,5.30
2018-12-05T11:49:00.828Z,5.20
2018-12-05T11:51:27.540Z,5.20
2018-12-05T11:53:54.621Z,5.20
2018-12-05T11:56:21.288Z,5.30
2018-12-05T11:58:48.128Z,5.40
2018-12-05T12:01:14.852Z,5.40
2018-12-05T12:03:41.584Z,5.30
2018-12-05T12:06:08.375Z,5.40
2018-12-05T12:08:35.019Z,5.60
2018-12-05T12:11:03.799Z,5.60
2018-12-05T12:13:30.753Z,5.60
2018-12-05T12:15:57.466Z,5.50
2018-12-05T12:18:24.325Z,5.60
2018-12-05T12:20:51.438Z,5.60
2018-12-05T12:23:18.220Z,5.60
2018-12-05T12:25:44.878Z,5.60
2018-12-05T12:28:11.565Z,5.50
2018-12-05T12:30:38.465Z,5.40
2018-12-05T12:33:05.180Z,5.40
2018-12-05T12:35:31.837Z,5.40
2018-12-05T12:37:58.504Z,5.50
2018-12-05T12:40:25.171Z,5.50
2018-12-05T12:42:51.863Z,5.60
2018-12-05T12:45:20.086Z,5.50
2018-12-05T12:47:47.959Z,5.40
2018-12-05T12:50:14.705Z,5.40
2018-12-05T12:52:41.416Z,5.40
2018-12-05T12:55:08.154Z,5.40
2018-12-05T12:57:34.795Z,5.40
2018-12-05T13:00:01.493Z,5.50
2018-12-05T13:02:28.162Z,5.40
2018-12-05T13:04:54.836Z,5.40
2018-12-05T13:07:21.517Z,5.40
2018-12-05T13:09:48.203Z,5.40
2018-12-05T13:12:16.930Z,5.30
2018-12-05T13:14:43.607Z,5.20
2018-12-05T13:17:10.249Z,5.20
2018-12-05T13:19:36.950Z,5.30
2018-12-05T13:22:03.725Z,5.30
2018-12-05T13:24:30.493Z,5.30
2018-12-05T13:26:57.172Z,5.30
2018-12-05T13:29:23.828Z,5.20
2018-12-05T13:31:50.531Z,5.10
2018-12-05T13:34:17.312Z,5.10
2018-12-05T13:36:44.136Z,5.00
2018-12-05T13:39:10.853Z,5.00
2018-12-05T13:41:37.577Z,5.00
2018-12-05T13:44:04.232Z,5.00
2018-12-05T13:46:30.928Z,5.00
2018-12-05T13:48:58.013Z,5.00
2018-12-05T13:51:24.833Z,4.90
2018-12-05T13:53:51.500Z,4.90
2018-12-05T13:56:18.427Z,4.80
2018-12-05T13:58:45.100Z,4.90
2018-12-05T14:01:12.003Z,4.90
2018-12-05T14:03:38.768Z,4.80
2018-12-05T14:06:05.482Z,4.80
2018-12-05T14:08:32.257Z,4.80
2018-12-05T14:10:58.901Z,4.80
2018-12-05T14:13:25.885Z,4.80
2018-12-05T14:15:52.951Z,4.80
2018-12-05T14:18:19.657Z,4.80
2018-12-05T14:20:46.300Z,4.80
2018-12-05T14:23:12.993Z,4.70
2018-12-05T14:25:39.646Z,4.60
2018-12-05T14:28:06.369Z,4.60
2018-12-05T14:30:40.092Z,4.60
2018-12-05T14:33:06.768Z,4.70
2018-12-05T14:35:33.471Z,4.70
2018-12-05T14:38:00.161Z,4.60
2018-12-05T14:40:26.829Z,4.50
2018-12-05T14:42:53.501Z,4.50
2018-12-05T14:45:20.452Z,4.40
2018-12-05T14:47:47.121Z,4.50
2018-12-05T14:50:13.808Z,4.30
2018-12-05T14:52:40.514Z,4.20
2018-12-05T14:55:07.293Z,4.30
2018-12-05T14:57:34.042Z,4.30
2018-12-05T15:00:00.777Z,4.20
2018-12-05T15:02:27.438Z,4.20
2018-12-05T15:04:54.114Z,4.20
2018-12-05T15:07:20.792Z,4.20
2018-12-05T15:09:47.831Z,4.20
2018-12-05T15:12:14.512Z,4.20
2018-12-05T15:14:41.197Z,4.30
2018-12-05T15:17:07.861Z,4.30
2018-12-05T15:19:34.721Z,4.20
2018-12-05T15:22:01.424Z,4.20
2018-12-05T15:24:28.114Z,4.20
2018-12-05T15:26:54.859Z,4.20
2018-12-05T15:29:21.678Z,4.20
2018-12-05T15:31:48.688Z,4.10
2018-12-05T15:34:15.494Z,4.10
2018-12-05T15:36:42.212Z,4.10
2018-12-05T15:39:08.866Z,4.10
2018-12-05T15:41:35.577Z,4.10
2018-12-05T15:44:02.437Z,4.10
2018-12-05T15:46:36.471Z,4.10
2018-12-05T15:49:03.289Z,4.10
2018-12-05T15:51:29.960Z,4.00
2018-12-05T15:53:56.616Z,4.10
2018-12-05T15:56:23.319Z,4.10
2018-12-05T15:58:50.053Z,4.10
2018-12-05T16:01:16.732Z,4.00
2018-12-05T16:03:43.629Z,4.00
2018-12-05T16:06:10.390Z,4.00
2018-12-05T16:08:37.049Z,3.90
2018-12-05T16:11:03.700Z,3.90
2018-12-05T16:13:30.488Z,3.90
2018-12-05T16:15:57.171Z,3.90
2018-12-05T16:18:23.857Z,3.90
2018-12-05T16:20:50.505Z,3.90
2018-12-05T16:23:17.205Z,3.80
2018-12-05T16:25:43.928Z,3.80
2018-12-05T16:28:10.621Z,3.80
2018-12-05T16:30:37.305Z,3.80
2018-12-05T16:33:03.990Z,3.70
2018-12-05T16:35:30.633Z,3.80
2018-12-05T16:37:57.341Z,3.80
2018-12-05T16:40:23.989Z,3.80
2018-12-05T16:42:50.681Z,3.80
2018-12-05T16:45:17.460Z,3.80
2018-12-05T16:47:44.113Z,3.80
2018-12-05T16:50:10.825Z,3.80
2018-12-05T16:52:37.489Z,3.80
2018-12-05T16:55:04.230Z,3.70
2018-12-05T16:57:30.915Z,3.70
2018-12-05T16:59:57.660Z,3.70
2018-12-05T17:02:24.393Z,3.70
2018-12-05T17:04:51.158Z,3.70
2018-12-05T17:07:17.866Z,3.60
2018-12-05T17:09:44.548Z,3.60
2018-12-05T17:12:11.211Z,3.60
2018-12-05T17:14:37.908Z,3.60
2018-12-05T17:17:04.560Z,3.60
2018-12-05T17:19:31.246Z,3.60
2018-12-05T17:21:57.917Z,3.60
2018-12-05T17:24:24.583Z,3.60
2018-12-05T17:26:51.263Z,3.60
2018-12-05T17:29:17.941Z,3.50
2018-12-05T17:31:44.635Z,3.50
2018-12-05T17:34:11.337Z,3.40
2018-12-05T17:36:38.037Z,3.40
2018-12-05T17:39:06.876Z,3.40
2018-12-05T17:41:33.573Z,3.40
2018-12-05T17:44:00.393Z,3.40
2018-12-05T17:46:27.114Z,3.50
2018-12-05T17:48:53.864Z,3.50
2018-12-05T17:51:20.591Z,3.40
2018-12-05T17:53:47.247Z,3.40
2018-12-05T17:56:13.990Z,3.30
2018-12-05T17:58:40.681Z,3.30
2018-12-05T18:01:07.396Z,3.30
2018-12-05T18:03:34.092Z,3.30
2018-12-05T18:06:00.779Z,3.30
2018-12-05T18:08:27.461Z,3.20
2018-12-05T18:10:54.113Z,3.20
2018-12-05T18:13:20.824Z,3.20
2018-12-05T18:15:47.497Z,3.20
2018-12-05T18:18:14.184Z,3.10
2018-12-05T18:20:40.950Z,3.10
2018-12-05T18:23:07.617Z,3.10
2018-12-05T18:25:34.336Z,3.00
2018-12-05T18:28:01.000Z,3.00
2018-12-05T18:30:34.770Z,3.00
2018-12-05T18:33:01.437Z,3.00
2018-12-05T18:35:28.128Z,2.90
2018-12-05T18:37:54.812Z,2.90
2018-12-05T18:40:21.485Z,2.90
2018-12-05T18:42:48.194Z,2.90
2018-12-05T18:45:14.894Z,2.90
2018-12-05T18:47:41.633Z,2.90
2018-12-05T18:50:08.499Z,2.90
2018-12-05T18:52:35.209Z,2.90
2018-12-05T18:55:01.881Z,2.90
2018-12-05T18:57:28.573Z,3.00
2018-12-05T19:00:01.218Z,3.00
2018-12-05T19:02:24.630Z,3.00
2018-12-05T19:04:51.345Z,3.00
2018-12-05T19:07:18.056Z,3.00
2018-12-05T19:09:44.797Z,3.00
2018-12-05T19:12:11.460Z,3.00
2018-12-05T19:14:44.469Z,3.00
2018-12-05T19:17:11.120Z,3.00
2018-12-05T19:19:37.825Z,2.90
2018-12-05T19:22:04.515Z,2.80
2018-12-05T19:24:31.205Z,2.90
2018-12-05T19:26:57.881Z,2.90
2018-12-05T19:29:31.442Z,2.90
2018-12-05T19:31:58.203Z,2.90
2018-12-05T19:34:24.917Z,2.80
2018-12-05T19:36:51.624Z,2.80
2018-12-05T19:39:18.289Z,2.90
2018-12-05T19:41:45.039Z,2.80
2018-12-05T19:44:11.716Z,2.80
2018-12-05T19:46:38.424Z,2.80
2018-12-05T19:49:05.076Z,2.70
2018-12-05T19:51:31.783Z,2.70
2018-12-05T19:53:58.824Z,2.60
2018-12-05T19:56:25.561Z,2.50
2018-12-05T19:58:52.216Z,2.50
2018-12-05T20:01:18.925Z,2.50
2018-12-05T20:03:45.580Z,2.50
2018-12-05T20:06:13.180Z,2.50
2018-12-05T20:08:39.872Z,2.50
2018-12-05T20:11:06.608Z,2.60
2018-12-05T20:13:35.376Z,2.50
2018-12-05T20:16:09.124Z,2.60
2018-12-05T20:18:35.852Z,2.60
2018-12-05T20:21:02.540Z,2.60
2018-12-05T20:23:29.241Z,2.60
2018-12-05T20:25:55.913Z,2.60
2018-12-05T20:28:22.610Z,2.60
2018-12-05T20:30:49.288Z,2.60
2018-12-05T20:33:16.009Z,2.50
2018-12-05T20:35:42.744Z,2.50
2018-12-05T20:38:09.420Z,2.50
2018-12-05T20:40:36.148Z,2.50
2018-12-05T20:43:02.910Z,2.60
2018-12-05T20:45:29.593Z,2.50
2018-12-05T20:47:56.328Z,2.50
2018-12-05T20:50:22.984Z,2.40
2018-12-05T20:52:49.752Z,2.30
2018-12-05T20:55:16.493Z,2.20
2018-12-05T20:57:43.249Z,2.20
2018-12-05T21:00:10.276Z,2.30
2018-12-05T21:02:43.821Z,2.40
2018-12-05T21:05:10.617Z,2.40
2018-12-05T21:07:37.349Z,2.50
2018-12-05T21:10:04.220Z,2.50
2018-12-05T21:12:30.914Z,2.50
2018-12-05T21:14:57.761Z,2.50
2018-12-05T21:17:25.443Z,2.50
2018-12-05T21:19:52.129Z,2.40
2018-12-05T21:22:18.816Z,2.50
2018-12-05T21:24:45.525Z,2.50
2018-12-05T21:27:12.200Z,2.50
2018-12-05T21:29:39.065Z,2.50
2018-12-05T21:32:05.734Z,2.50
2018-12-05T21:34:32.472Z,2.50
2018-12-05T21:36:59.205Z,2.50
2018-12-05T21:39:25.932Z,2.50
2018-12-05T21:41:53.408Z,2.50
2018-12-05T21:44:20.112Z,2.50
2018-12-05T21:46:46.830Z,2.50
2018-12-05T21:49:13.597Z,2.50
2018-12-05T21:51:40.332Z,2.50
2018-12-05T21:54:07.049Z,2.40
2018-12-05T21:56:33.826Z,2.40
2018-12-05T21:59:00.478Z,2.40
2018-12-05T22:01:27.565Z,2.30
2018-12-05T22:03:54.223Z,2.40
2018-12-05T22:06:21.116Z,2.40
2018-12-05T22:08:47.832Z,2.50
2018-12-05T22:11:14.556Z,2.50
2018-12-05T22:13:41.233Z,2.40
2018-12-05T22:16:07.931Z,2.50
2018-12-05T22:18:34.676Z,2.50
2018-12-05T22:21:01.360Z,2.50
2018-12-05T22:23:28.017Z,2.40
2018-12-05T22:25:55.934Z,2.40
2018-12-05T22:28:22.965Z,2.40
2018-12-05T22:30:49.704Z,2.40
2018-12-05T22:33:16.448Z,2.40
2018-12-05T22:39:06.385Z,2.50
2018-12-05T22:41:33.039Z,2.50
2018-12-05T22:43:59.716Z,2.50
2018-12-05T22:46:26.374Z,2.50
2018-12-05T22:48:53.057Z,2.50
2018-12-05T22:51:19.701Z,2.50
2018-12-05T22:53:46.392Z,2.50
2018-12-05T22:56:13.054Z,2.50
2018-12-05T22:58:39.735Z,2.60
2018-12-05T23:01:06.552Z,2.60
2018-12-05T23:03:33.237Z,2.50
2018-12-05T23:05:59.942Z,2.50
2018-12-05T23:08:26.977Z,2.50
2018-12-05T23:10:53.631Z,2.50
2018-12-05T23:13:20.474Z,2.60
2018-12-05T23:15:47.160Z,2.60
2018-12-05T23:18:13.799Z,2.50
2018-12-05T23:20:40.500Z,2.50
2018-12-05T23:23:07.165Z,2.50
2018-12-05T23:25:33.868Z,2.50
2018-12-05T23:28:00.518Z,2.50
2018-12-05T23:30:27.239Z,2.60
2018-12-05T23:32:53.877Z,2.60
2018-12-05T23:35:20.576Z,2.60
2018-12-05T23:37:47.247Z,2.60
2018-12-05T23:40:13.945Z,2.60
2018-12-05T23:42:41.209Z,2.60
2018-12-05T23:45:08.053Z,2.70
2018-12-05T23:47:34.696Z,2.80
2018-12-05T23:50:01.427Z,2.70
2018-12-05T23:52:28.183Z,2.70
2018-12-05T23:54:54.852Z,2.70
2018-12-05T23:57:21.521Z,2.70
2018-12-05T23:59:48.152Z,2.70
